sensor_id;sensor_type;location;lat;lon;timestamp;temperature;humidity
57829;DHT22;43657;52.698;6.314;2023-12-20T00:02:10;5.20;99.90
57829;DHT22;43657;52.698;6.314;2023-12-20T00:04:43;5.30;99.90
57829;DHT22;43657;52.698;6.314;2023-12-20T00:07:09;5.30;99.90
57829;DHT22;43657;52.698;6.314;2023-12-20T00:09:46;5.40;99.90
57829;DHT22;43657;52.698;6.314;2023-12-20T00:12:12;5.30;99.90
57829;DHT22;43657;52.698;6.314;2023-12-20T00:14:40;5.30;99.90
57829;DHT22;43657;52.698;6.314;2023-12-20T00:17:14;5.30;99.90
57829;DHT22;43657;52.698;6.314;2023-12-20T00:19:40;5.20;99.90
57829;DHT22;43657;52.698;6.314;2023-12-20T00:22:14;5.10;99.90
57829;DHT22;43657;52.698;6.314;2023-12-20T00:24:42;5.00;99.90
57829;DHT22;43657;52.698;6.314;2023-12-20T00:27:28;4.90;99.90
57829;DHT22;43657;52.698;6.314;2023-12-20T00:29:58;4.90;99.90
57829;DHT22;43657;52.698;6.314;2023-12-20T00:32:23;4.90;99.90
57829;DHT22;43657;52.698;6.314;2023-12-20T00:34:51;4.90;99.90
57829;DHT22;43657;52.698;6.314;2023-12-20T00:37:26;4.90;99.90
57829;DHT22;43657;52.698;6.314;2023-12-20T00:39:54;4.90;99.90
57829;DHT22;43657;52.698;6.314;2023-12-20T00:42:48;4.90;99.90
57829;DHT22;43657;52.698;6.314;2023-12-20T00:45:19;4.90;99.90
57829;DHT22;43657;52.698;6.314;2023-12-20T00:47:53;4.90;99.90
57829;DHT22;43657;52.698;6.314;2023-12-20T00:50:24;4.80;99.90
57829;DHT22;43657;52.698;6.314;2023-12-20T00:52:55;4.80;99.90
57829;DHT22;43657;52.698;6.314;2023-12-20T00:55:24;4.80;99.90
57829;DHT22;43657;52.698;6.314;2023-12-20T00:57:58;4.80;99.90
57829;DHT22;43657;52.698;6.314;2023-12-20T01:00:29;4.80;99.90
57829;DHT22;43657;52.698;6.314;2023-12-20T01:02:55;4.70;99.90
57829;DHT22;43657;52.698;6.314;2023-12-20T01:05:20;4.70;99.90
57829;DHT22;43657;52.698;6.314;2023-12-20T01:07:54;4.70;99.90
57829;DHT22;43657;52.698;6.314;2023-12-20T01:10:25;4.80;99.90
57829;DHT22;43657;52.698;6.314;2023-12-20T01:12:59;4.90;99.90
57829;DHT22;43657;52.698;6.314;2023-12-20T01:15:28;5.00;99.90
57829;DHT22;43657;52.698;6.314;2023-12-20T01:17:58;5.00;99.90
57829;DHT22;43657;52.698;6.314;2023-12-20T01:20:24;4.90;99.90
57829;DHT22;43657;52.698;6.314;2023-12-20T01:22:51;5.10;99.90
57829;DHT22;43657;52.698;6.314;2023-12-20T01:25:18;5.10;99.90
57829;DHT22;43657;52.698;6.314;2023-12-20T01:27:53;5.10;99.90
57829;DHT22;43657;52.698;6.314;2023-12-20T01:30:24;5.20;99.90
57829;DHT22;43657;52.698;6.314;2023-12-20T01:32:55;5.20;99.90
57829;DHT22;43657;52.698;6.314;2023-12-20T01:35:21;5.10;99.90
57829;DHT22;43657;52.698;6.314;2023-12-20T01:37:50;5.10;99.90
57829;DHT22;43657;52.698;6.314;2023-12-20T01:40:24;5.10;99.90
57829;DHT22;43657;52.698;6.314;2023-12-20T01:43:07;5.10;99.90
57829;DHT22;43657;52.698;6.314;2023-12-20T01:45:37;5.10;99.90
57829;DHT22;43657;52.698;6.314;2023-12-20T01:48:09;5.20;99.90
57829;DHT22;43657;52.698;6.314;2023-12-20T01:50:40;5.10;99.90
57829;DHT22;43657;52.698;6.314;2023-12-20T01:53:12;5.20;99.90
57829;DHT22;43657;52.698;6.314;2023-12-20T01:55:42;5.20;99.90
57829;DHT22;43657;52.698;6.314;2023-12-20T01:58:20;5.10;99.90
57829;DHT22;43657;52.698;6.314;2023-12-20T02:00:46;5.20;99.90
57829;DHT22;43657;52.698;6.314;2023-12-20T02:03:19;5.20;99.90
57829;DHT22;43657;52.698;6.314;2023-12-20T02:05:47;5.30;99.90
57829;DHT22;43657;52.698;6.314;2023-12-20T02:08:16;5.30;99.90
57829;DHT22;43657;52.698;6.314;2023-12-20T02:10:50;5.30;99.90
57829;DHT22;43657;52.698;6.314;2023-12-20T02:13:16;5.30;99.90
57829;DHT22;43657;52.698;6.314;2023-12-20T02:15:41;5.30;99.90
57829;DHT22;43657;52.698;6.314;2023-12-20T02:18:09;5.30;99.90
57829;DHT22;43657;52.698;6.314;2023-12-20T02:20:34;5.30;99.90
57829;DHT22;43657;52.698;6.314;2023-12-20T02:23:00;5.40;99.90
57829;DHT22;43657;52.698;6.314;2023-12-20T02:25:25;5.40;99.90
57829;DHT22;43657;52.698;6.314;2023-12-20T02:27:51;5.30;99.90
57829;DHT22;43657;52.698;6.314;2023-12-20T02:30:17;5.30;99.90
57829;DHT22;43657;52.698;6.314;2023-12-20T02:32:43;5.40;99.90
57829;DHT22;43657;52.698;6.314;2023-12-20T02:35:08;5.40;99.90
57829;DHT22;43657;52.698;6.314;2023-12-20T02:37:34;5.40;99.90
57829;DHT22;43657;52.698;6.314;2023-12-20T02:39:59;5.50;99.90
57829;DHT22;43657;52.698;6.314;2023-12-20T02:42:25;5.50;99.90
57829;DHT22;43657;52.698;6.314;2023-12-20T02:44:50;5.50;99.90
57829;DHT22;43657;52.698;6.314;2023-12-20T02:47:16;5.60;99.90
57829;DHT22;43657;52.698;6.314;2023-12-20T02:49:41;5.60;99.90
57829;DHT22;43657;52.698;6.314;2023-12-20T02:52:07;5.60;99.90
57829;DHT22;43657;52.698;6.314;2023-12-20T02:54:33;5.70;99.90
57829;DHT22;43657;52.698;6.314;2023-12-20T02:56:58;5.60;99.90
57829;DHT22;43657;52.698;6.314;2023-12-20T02:59:24;5.60;99.90
57829;DHT22;43657;52.698;6.314;2023-12-20T03:01:49;5.60;99.90
57829;DHT22;43657;52.698;6.314;2023-12-20T03:04:15;5.60;99.90
57829;DHT22;43657;52.698;6.314;2023-12-20T03:06:40;5.60;99.90
57829;DHT22;43657;52.698;6.314;2023-12-20T03:09:06;5.60;99.90
57829;DHT22;43657;52.698;6.314;2023-12-20T03:11:31;5.60;99.90
57829;DHT22;43657;52.698;6.314;2023-12-20T03:13:57;5.60;99.90
57829;DHT22;43657;52.698;6.314;2023-12-20T03:16:23;5.60;99.90
57829;DHT22;43657;52.698;6.314;2023-12-20T03:18:49;5.60;99.90
57829;DHT22;43657;52.698;6.314;2023-12-20T03:21:15;5.70;99.90
57829;DHT22;43657;52.698;6.314;2023-12-20T03:23:41;5.70;99.90
57829;DHT22;43657;52.698;6.314;2023-12-20T03:26:09;5.70;99.90
57829;DHT22;43657;52.698;6.314;2023-12-20T03:28:38;5.70;99.90
57829;DHT22;43657;52.698;6.314;2023-12-20T03:31:04;5.60;99.90
57829;DHT22;43657;52.698;6.314;2023-12-20T03:33:29;5.60;99.90
57829;DHT22;43657;52.698;6.314;2023-12-20T03:35:55;5.60;99.90
57829;DHT22;43657;52.698;6.314;2023-12-20T03:38:21;5.70;99.90
57829;DHT22;43657;52.698;6.314;2023-12-20T03:40:49;5.70;99.90
57829;DHT22;43657;52.698;6.314;2023-12-20T03:43:15;5.80;99.90
57829;DHT22;43657;52.698;6.314;2023-12-20T03:45:41;5.90;99.90
57829;DHT22;43657;52.698;6.314;2023-12-20T03:48:07;5.90;99.90
57829;DHT22;43657;52.698;6.314;2023-12-20T03:50:32;5.80;99.90
57829;DHT22;43657;52.698;6.314;2023-12-20T03:52:58;5.80;99.90
57829;DHT22;43657;52.698;6.314;2023-12-20T03:55:23;5.80;99.90
57829;DHT22;43657;52.698;6.314;2023-12-20T03:57:49;5.80;99.90
57829;DHT22;43657;52.698;6.314;2023-12-20T04:00:15;5.90;99.90
57829;DHT22;43657;52.698;6.314;2023-12-20T04:02:41;5.80;99.90
57829;DHT22;43657;52.698;6.314;2023-12-20T04:05:08;5.70;99.90
57829;DHT22;43657;52.698;6.314;2023-12-20T04:07:34;5.70;99.90
57829;DHT22;43657;52.698;6.314;2023-12-20T04:10:00;5.60;99.90
57829;DHT22;43657;52.698;6.314;2023-12-20T04:12:27;5.60;99.90
57829;DHT22;43657;52.698;6.314;2023-12-20T04:14:53;5.50;99.90
57829;DHT22;43657;52.698;6.314;2023-12-20T04:17:19;5.50;99.90
57829;DHT22;43657;52.698;6.314;2023-12-20T04:19:45;5.50;99.90
57829;DHT22;43657;52.698;6.314;2023-12-20T04:22:10;5.50;99.90
57829;DHT22;43657;52.698;6.314;2023-12-20T04:24:36;5.50;99.90
57829;DHT22;43657;52.698;6.314;2023-12-20T04:27:02;5.50;99.90
57829;DHT22;43657;52.698;6.314;2023-12-20T04:29:28;5.60;99.90
57829;DHT22;43657;52.698;6.314;2023-12-20T04:31:53;5.60;99.90
57829;DHT22;43657;52.698;6.314;2023-12-20T04:34:19;5.70;99.90
57829;DHT22;43657;52.698;6.314;2023-12-20T04:36:45;5.70;99.90
57829;DHT22;43657;52.698;6.314;2023-12-20T04:39:12;5.80;99.90
57829;DHT22;43657;52.698;6.314;2023-12-20T04:41:38;5.80;99.90
57829;DHT22;43657;52.698;6.314;2023-12-20T04:44:03;5.80;99.90
57829;DHT22;43657;52.698;6.314;2023-12-20T04:46:29;5.80;99.90
57829;DHT22;43657;52.698;6.314;2023-12-20T04:48:54;5.80;99.90
57829;DHT22;43657;52.698;6.314;2023-12-20T04:51:20;5.80;99.90
57829;DHT22;43657;52.698;6.314;2023-12-20T04:53:46;5.80;99.90
57829;DHT22;43657;52.698;6.314;2023-12-20T04:56:12;5.80;99.90
57829;DHT22;43657;52.698;6.314;2023-12-20T04:58:37;5.80;99.90
57829;DHT22;43657;52.698;6.314;2023-12-20T05:01:04;5.90;99.90
57829;DHT22;43657;52.698;6.314;2023-12-20T05:03:30;5.80;99.90
57829;DHT22;43657;52.698;6.314;2023-12-20T05:05:56;5.80;99.90
57829;DHT22;43657;52.698;6.314;2023-12-20T05:08:21;5.90;99.90
57829;DHT22;43657;52.698;6.314;2023-12-20T05:10:47;5.90;99.90
57829;DHT22;43657;52.698;6.314;2023-12-20T05:13:13;5.90;99.90
57829;DHT22;43657;52.698;6.314;2023-12-20T05:15:38;6.00;99.90
57829;DHT22;43657;52.698;6.314;2023-12-20T05:18:04;6.00;99.90
57829;DHT22;43657;52.698;6.314;2023-12-20T05:20:30;6.10;99.90
57829;DHT22;43657;52.698;6.314;2023-12-20T05:22:55;6.10;99.90
57829;DHT22;43657;52.698;6.314;2023-12-20T05:25:21;6.20;99.90
57829;DHT22;43657;52.698;6.314;2023-12-20T05:27:46;6.20;99.90
57829;DHT22;43657;52.698;6.314;2023-12-20T05:30:12;6.20;99.90
57829;DHT22;43657;52.698;6.314;2023-12-20T05:32:38;6.20;99.90
57829;DHT22;43657;52.698;6.314;2023-12-20T05:35:03;6.20;99.90
57829;DHT22;43657;52.698;6.314;2023-12-20T05:37:29;6.20;99.90
57829;DHT22;43657;52.698;6.314;2023-12-20T05:39:54;6.20;99.90
57829;DHT22;43657;52.698;6.314;2023-12-20T05:42:20;6.20;99.90
57829;DHT22;43657;52.698;6.314;2023-12-20T05:44:45;6.30;99.90
57829;DHT22;43657;52.698;6.314;2023-12-20T05:47:11;6.30;99.90
57829;DHT22;43657;52.698;6.314;2023-12-20T05:49:37;6.30;99.90
57829;DHT22;43657;52.698;6.314;2023-12-20T05:52:02;6.30;99.90
57829;DHT22;43657;52.698;6.314;2023-12-20T05:54:28;6.30;99.90
57829;DHT22;43657;52.698;6.314;2023-12-20T05:56:53;6.30;99.90
57829;DHT22;43657;52.698;6.314;2023-12-20T05:59:19;6.30;99.90
57829;DHT22;43657;52.698;6.314;2023-12-20T06:01:44;6.40;99.90
57829;DHT22;43657;52.698;6.314;2023-12-20T06:04:10;6.30;99.90
57829;DHT22;43657;52.698;6.314;2023-12-20T06:06:41;6.40;99.90
57829;DHT22;43657;52.698;6.314;2023-12-20T06:09:07;6.40;99.90
57829;DHT22;43657;52.698;6.314;2023-12-20T06:11:33;6.40;99.90
57829;DHT22;43657;52.698;6.314;2023-12-20T06:13:58;6.40;99.90
57829;DHT22;43657;52.698;6.314;2023-12-20T06:16:24;6.40;99.90
57829;DHT22;43657;52.698;6.314;2023-12-20T06:18:49;6.40;99.90
57829;DHT22;43657;52.698;6.314;2023-12-20T06:21:15;6.40;99.90
57829;DHT22;43657;52.698;6.314;2023-12-20T06:23:41;6.40;99.90
57829;DHT22;43657;52.698;6.314;2023-12-20T06:26:06;6.40;99.90
57829;DHT22;43657;52.698;6.314;2023-12-20T06:28:32;6.40;99.90
57829;DHT22;43657;52.698;6.314;2023-12-20T06:30:57;6.50;99.90
57829;DHT22;43657;52.698;6.314;2023-12-20T06:33:23;6.50;99.90
57829;DHT22;43657;52.698;6.314;2023-12-20T06:35:49;6.50;99.90
57829;DHT22;43657;52.698;6.314;2023-12-20T06:38:15;6.50;99.90
57829;DHT22;43657;52.698;6.314;2023-12-20T06:40:40;6.50;99.90
57829;DHT22;43657;52.698;6.314;2023-12-20T06:43:06;6.60;99.90
57829;DHT22;43657;52.698;6.314;2023-12-20T06:45:32;6.50;99.90
57829;DHT22;43657;52.698;6.314;2023-12-20T06:47:58;6.50;99.90
57829;DHT22;43657;52.698;6.314;2023-12-20T06:50:24;6.60;99.90
57829;DHT22;43657;52.698;6.314;2023-12-20T06:52:49;6.60;99.90
57829;DHT22;43657;52.698;6.314;2023-12-20T06:55:15;6.60;99.90
57829;DHT22;43657;52.698;6.314;2023-12-20T06:57:40;6.60;99.90
57829;DHT22;43657;52.698;6.314;2023-12-20T07:00:07;6.60;99.90
57829;DHT22;43657;52.698;6.314;2023-12-20T07:02:33;6.60;99.90
57829;DHT22;43657;52.698;6.314;2023-12-20T07:04:59;6.60;99.90
57829;DHT22;43657;52.698;6.314;2023-12-20T07:07:25;6.60;99.90
57829;DHT22;43657;52.698;6.314;2023-12-20T07:09:51;6.60;99.90
57829;DHT22;43657;52.698;6.314;2023-12-20T07:12:17;6.60;99.90
57829;DHT22;43657;52.698;6.314;2023-12-20T07:14:45;6.60;99.90
57829;DHT22;43657;52.698;6.314;2023-12-20T07:17:10;6.60;99.90
57829;DHT22;43657;52.698;6.314;2023-12-20T07:19:39;6.70;99.90
57829;DHT22;43657;52.698;6.314;2023-12-20T07:22:06;6.60;99.90
57829;DHT22;43657;52.698;6.314;2023-12-20T07:24:32;6.70;99.90
57829;DHT22;43657;52.698;6.314;2023-12-20T07:26:59;6.70;99.90
57829;DHT22;43657;52.698;6.314;2023-12-20T07:29:25;6.70;99.90
57829;DHT22;43657;52.698;6.314;2023-12-20T07:31:50;6.70;99.90
57829;DHT22;43657;52.698;6.314;2023-12-20T07:34:17;6.70;99.90
57829;DHT22;43657;52.698;6.314;2023-12-20T07:36:43;6.70;99.90
57829;DHT22;43657;52.698;6.314;2023-12-20T07:39:08;6.70;99.90
57829;DHT22;43657;52.698;6.314;2023-12-20T07:41:34;6.80;99.90
57829;DHT22;43657;52.698;6.314;2023-12-20T07:44:00;6.70;99.90
57829;DHT22;43657;52.698;6.314;2023-12-20T07:46:25;6.70;99.90
57829;DHT22;43657;52.698;6.314;2023-12-20T07:48:51;6.80;99.90
57829;DHT22;43657;52.698;6.314;2023-12-20T07:51:16;6.80;99.90
57829;DHT22;43657;52.698;6.314;2023-12-20T07:53:42;6.80;99.90
57829;DHT22;43657;52.698;6.314;2023-12-20T07:56:18;6.80;99.90
57829;DHT22;43657;52.698;6.314;2023-12-20T07:58:45;6.80;99.90
57829;DHT22;43657;52.698;6.314;2023-12-20T08:01:11;6.80;99.90
57829;DHT22;43657;52.698;6.314;2023-12-20T08:03:37;6.80;99.90
57829;DHT22;43657;52.698;6.314;2023-12-20T08:06:03;6.80;99.90
57829;DHT22;43657;52.698;6.314;2023-12-20T08:08:28;6.80;99.90
57829;DHT22;43657;52.698;6.314;2023-12-20T08:10:54;6.80;99.90
57829;DHT22;43657;52.698;6.314;2023-12-20T08:13:23;6.80;99.90
57829;DHT22;43657;52.698;6.314;2023-12-20T08:15:59;6.80;99.90
57829;DHT22;43657;52.698;6.314;2023-12-20T08:18:25;6.80;99.90
57829;DHT22;43657;52.698;6.314;2023-12-20T08:21:01;6.90;99.90
57829;DHT22;43657;52.698;6.314;2023-12-20T08:23:27;6.90;99.90
57829;DHT22;43657;52.698;6.314;2023-12-20T08:25:56;6.90;99.90
57829;DHT22;43657;52.698;6.314;2023-12-20T08:28:26;6.90;99.90
57829;DHT22;43657;52.698;6.314;2023-12-20T08:30:52;7.00;99.90
57829;DHT22;43657;52.698;6.314;2023-12-20T08:33:19;7.00;99.90
57829;DHT22;43657;52.698;6.314;2023-12-20T08:35:47;7.10;99.90
57829;DHT22;43657;52.698;6.314;2023-12-20T08:38:13;7.00;99.90
57829;DHT22;43657;52.698;6.314;2023-12-20T08:40:50;7.00;99.90
57829;DHT22;43657;52.698;6.314;2023-12-20T08:43:18;7.00;99.90
57829;DHT22;43657;52.698;6.314;2023-12-20T08:45:43;7.10;99.90
57829;DHT22;43657;52.698;6.314;2023-12-20T08:48:17;7.10;99.90
57829;DHT22;43657;52.698;6.314;2023-12-20T08:50:49;7.00;99.90
57829;DHT22;43657;52.698;6.314;2023-12-20T08:53:21;7.00;99.90
57829;DHT22;43657;52.698;6.314;2023-12-20T08:55:55;7.00;99.90
57829;DHT22;43657;52.698;6.314;2023-12-20T08:58:48;7.00;99.90
57829;DHT22;43657;52.698;6.314;2023-12-20T09:01:19;7.10;99.90
57829;DHT22;43657;52.698;6.314;2023-12-20T09:03:51;7.10;99.90
57829;DHT22;43657;52.698;6.314;2023-12-20T09:06:21;7.20;99.90
57829;DHT22;43657;52.698;6.314;2023-12-20T09:09:09;7.20;99.90
57829;DHT22;43657;52.698;6.314;2023-12-20T09:11:41;7.20;99.90
57829;DHT22;43657;52.698;6.314;2023-12-20T09:14:22;7.30;99.90
57829;DHT22;43657;52.698;6.314;2023-12-20T09:17:00;7.30;99.90
57829;DHT22;43657;52.698;6.314;2023-12-20T09:19:31;7.50;99.90
57829;DHT22;43657;52.698;6.314;2023-12-20T09:22:02;7.40;99.90
57829;DHT22;43657;52.698;6.314;2023-12-20T09:24:37;7.50;99.90
57829;DHT22;43657;52.698;6.314;2023-12-20T09:27:08;7.50;99.90
57829;DHT22;43657;52.698;6.314;2023-12-20T09:29:42;7.50;99.90
57829;DHT22;43657;52.698;6.314;2023-12-20T09:32:10;7.50;99.90
57829;DHT22;43657;52.698;6.314;2023-12-20T09:34:38;7.40;99.90
57829;DHT22;43657;52.698;6.314;2023-12-20T09:37:18;7.40;99.90
57829;DHT22;43657;52.698;6.314;2023-12-20T09:39:52;7.40;99.90
57829;DHT22;43657;52.698;6.314;2023-12-20T09:42:28;7.50;99.90
57829;DHT22;43657;52.698;6.314;2023-12-20T09:45:04;7.60;99.90
57829;DHT22;43657;52.698;6.314;2023-12-20T09:47:40;7.70;99.90
57829;DHT22;43657;52.698;6.314;2023-12-20T09:50:14;7.70;99.90
57829;DHT22;43657;52.698;6.314;2023-12-20T09:52:52;7.80;99.90
57829;DHT22;43657;52.698;6.314;2023-12-20T09:55:27;7.90;99.90
57829;DHT22;43657;52.698;6.314;2023-12-20T09:57:56;7.90;99.90
57829;DHT22;43657;52.698;6.314;2023-12-20T10:00:42;8.00;99.90
57829;DHT22;43657;52.698;6.314;2023-12-20T10:03:25;8.00;99.90
57829;DHT22;43657;52.698;6.314;2023-12-20T10:06:02;7.90;99.90
57829;DHT22;43657;52.698;6.314;2023-12-20T10:08:34;8.00;99.90
57829;DHT22;43657;52.698;6.314;2023-12-20T10:11:19;8.00;99.90
57829;DHT22;43657;52.698;6.314;2023-12-20T10:13:47;7.80;99.90
57829;DHT22;43657;52.698;6.314;2023-12-20T10:16:16;7.50;99.90
57829;DHT22;43657;52.698;6.314;2023-12-20T10:18:45;7.30;99.90
57829;DHT22;43657;52.698;6.314;2023-12-20T10:21:13;7.10;99.90
57829;DHT22;43657;52.698;6.314;2023-12-20T10:23:48;7.00;99.90
57829;DHT22;43657;52.698;6.314;2023-12-20T10:26:20;6.90;99.90
57829;DHT22;43657;52.698;6.314;2023-12-20T10:29:01;6.90;99.90
57829;DHT22;43657;52.698;6.314;2023-12-20T10:31:37;6.80;99.90
57829;DHT22;43657;52.698;6.314;2023-12-20T10:34:04;6.70;99.90
57829;DHT22;43657;52.698;6.314;2023-12-20T10:36:32;6.70;99.90
57829;DHT22;43657;52.698;6.314;2023-12-20T10:39:12;6.70;99.90
57829;DHT22;43657;52.698;6.314;2023-12-20T10:41:46;6.60;99.90
57829;DHT22;43657;52.698;6.314;2023-12-20T10:44:19;6.60;99.90
57829;DHT22;43657;52.698;6.314;2023-12-20T10:46:54;6.60;99.90
57829;DHT22;43657;52.698;6.314;2023-12-20T10:49:31;6.60;99.90
57829;DHT22;43657;52.698;6.314;2023-12-20T10:51:58;6.60;99.90
57829;DHT22;43657;52.698;6.314;2023-12-20T10:54:25;6.60;99.90
57829;DHT22;43657;52.698;6.314;2023-12-20T10:56:55;6.60;99.90
57829;DHT22;43657;52.698;6.314;2023-12-20T10:59:29;6.60;99.90
57829;DHT22;43657;52.698;6.314;2023-12-20T11:02:06;6.50;99.90
57829;DHT22;43657;52.698;6.314;2023-12-20T11:08:07;6.50;99.90
57829;DHT22;43657;52.698;6.314;2023-12-20T11:10:59;6.50;99.90
57829;DHT22;43657;52.698;6.314;2023-12-20T11:13:37;6.50;99.90
57829;DHT22;43657;52.698;6.314;2023-12-20T11:16:31;6.50;99.90
57829;DHT22;43657;52.698;6.314;2023-12-20T11:18:57;6.40;99.90
57829;DHT22;43657;52.698;6.314;2023-12-20T11:21:29;6.40;99.90
57829;DHT22;43657;52.698;6.314;2023-12-20T11:24:02;6.40;99.90
57829;DHT22;43657;52.698;6.314;2023-12-20T11:26:31;6.40;99.90
57829;DHT22;43657;52.698;6.314;2023-12-20T11:29:51;6.40;99.90
57829;DHT22;43657;52.698;6.314;2023-12-20T11:37:40;6.60;99.90
57829;DHT22;43657;52.698;6.314;2023-12-20T11:40:19;6.60;99.90
57829;DHT22;43657;52.698;6.314;2023-12-20T11:42:50;6.60;99.90
57829;DHT22;43657;52.698;6.314;2023-12-20T11:45:21;6.60;99.90
57829;DHT22;43657;52.698;6.314;2023-12-20T11:47:56;6.60;99.90
57829;DHT22;43657;52.698;6.314;2023-12-20T11:50:26;6.60;99.90
57829;DHT22;43657;52.698;6.314;2023-12-20T11:53:01;6.50;99.90
57829;DHT22;43657;52.698;6.314;2023-12-20T11:55:33;6.40;99.90
57829;DHT22;43657;52.698;6.314;2023-12-20T11:58:05;6.50;99.90
57829;DHT22;43657;52.698;6.314;2023-12-20T12:00:40;6.50;99.90
57829;DHT22;43657;52.698;6.314;2023-12-20T12:03:16;6.50;99.90
57829;DHT22;43657;52.698;6.314;2023-12-20T12:05:51;6.50;99.90
57829;DHT22;43657;52.698;6.314;2023-12-20T12:08:24;6.50;99.90
57829;DHT22;43657;52.698;6.314;2023-12-20T12:11:05;6.50;99.90
57829;DHT22;43657;52.698;6.314;2023-12-20T12:13:31;6.50;99.90
57829;DHT22;43657;52.698;6.314;2023-12-20T12:15:59;6.50;99.90
57829;DHT22;43657;52.698;6.314;2023-12-20T12:18:30;6.50;99.90
57829;DHT22;43657;52.698;6.314;2023-12-20T12:21:19;6.40;99.90
57829;DHT22;43657;52.698;6.314;2023-12-20T12:23:46;6.40;99.90
57829;DHT22;43657;52.698;6.314;2023-12-20T12:26:11;6.50;99.90
57829;DHT22;43657;52.698;6.314;2023-12-20T12:28:41;6.40;99.90
57829;DHT22;43657;52.698;6.314;2023-12-20T12:31:28;6.40;99.90
57829;DHT22;43657;52.698;6.314;2023-12-20T12:34:03;6.40;99.90
57829;DHT22;43657;52.698;6.314;2023-12-20T12:36:29;6.40;99.90
57829;DHT22;43657;52.698;6.314;2023-12-20T12:39:02;6.50;99.90
57829;DHT22;43657;52.698;6.314;2023-12-20T12:41:29;6.60;99.90
57829;DHT22;43657;52.698;6.314;2023-12-20T12:43:57;6.50;99.90
57829;DHT22;43657;52.698;6.314;2023-12-20T12:46:23;6.50;99.90
57829;DHT22;43657;52.698;6.314;2023-12-20T12:48:49;6.50;99.90
57829;DHT22;43657;52.698;6.314;2023-12-20T12:51:17;6.50;99.90
57829;DHT22;43657;52.698;6.314;2023-12-20T12:53:45;6.50;99.90
57829;DHT22;43657;52.698;6.314;2023-12-20T12:56:15;6.50;99.90
57829;DHT22;43657;52.698;6.314;2023-12-20T12:58:45;6.50;99.90
57829;DHT22;43657;52.698;6.314;2023-12-20T13:01:16;6.40;99.90
57829;DHT22;43657;52.698;6.314;2023-12-20T13:03:50;6.40;99.90
57829;DHT22;43657;52.698;6.314;2023-12-20T13:06:18;6.40;99.90
57829;DHT22;43657;52.698;6.314;2023-12-20T13:08:44;6.40;99.90
57829;DHT22;43657;52.698;6.314;2023-12-20T13:11:13;6.40;99.90
57829;DHT22;43657;52.698;6.314;2023-12-20T13:13:39;6.40;99.90
57829;DHT22;43657;52.698;6.314;2023-12-20T13:16:04;6.40;99.90
57829;DHT22;43657;52.698;6.314;2023-12-20T13:18:30;6.40;99.90
57829;DHT22;43657;52.698;6.314;2023-12-20T13:20:56;6.50;99.90
57829;DHT22;43657;52.698;6.314;2023-12-20T13:23:22;6.40;99.90
57829;DHT22;43657;52.698;6.314;2023-12-20T13:25:47;6.50;99.90
57829;DHT22;43657;52.698;6.314;2023-12-20T13:28:18;6.40;99.90
57829;DHT22;43657;52.698;6.314;2023-12-20T13:30:44;6.40;99.90
57829;DHT22;43657;52.698;6.314;2023-12-20T13:33:11;6.40;99.90
57829;DHT22;43657;52.698;6.314;2023-12-20T13:35:50;6.40;99.90
57829;DHT22;43657;52.698;6.314;2023-12-20T13:38:30;6.40;99.90
57829;DHT22;43657;52.698;6.314;2023-12-20T13:40:59;6.40;99.90
57829;DHT22;43657;52.698;6.314;2023-12-20T13:43:25;6.40;99.90
57829;DHT22;43657;52.698;6.314;2023-12-20T13:45:53;6.40;99.90
57829;DHT22;43657;52.698;6.314;2023-12-20T13:48:21;6.50;99.90
57829;DHT22;43657;52.698;6.314;2023-12-20T13:50:49;6.50;99.90
57829;DHT22;43657;52.698;6.314;2023-12-20T13:53:15;6.50;99.90
57829;DHT22;43657;52.698;6.314;2023-12-20T13:55:47;6.60;99.90
57829;DHT22;43657;52.698;6.314;2023-12-20T13:58:13;6.60;99.90
57829;DHT22;43657;52.698;6.314;2023-12-20T14:00:42;6.60;99.90
57829;DHT22;43657;52.698;6.314;2023-12-20T14:03:10;6.60;99.90
57829;DHT22;43657;52.698;6.314;2023-12-20T14:05:41;6.70;99.90
57829;DHT22;43657;52.698;6.314;2023-12-20T14:08:07;6.70;99.90
57829;DHT22;43657;52.698;6.314;2023-12-20T14:10:41;6.70;99.90
57829;DHT22;43657;52.698;6.314;2023-12-20T14:13:12;6.70;99.90
57829;DHT22;43657;52.698;6.314;2023-12-20T14:15:49;6.80;99.90
57829;DHT22;43657;52.698;6.314;2023-12-20T14:18:14;6.80;99.90
57829;DHT22;43657;52.698;6.314;2023-12-20T14:20:40;7.00;99.90
57829;DHT22;43657;52.698;6.314;2023-12-20T14:23:08;7.00;99.90
57829;DHT22;43657;52.698;6.314;2023-12-20T14:25:35;7.10;99.90
57829;DHT22;43657;52.698;6.314;2023-12-20T14:28:05;7.10;99.90
57829;DHT22;43657;52.698;6.314;2023-12-20T14:30:31;7.10;99.90
57829;DHT22;43657;52.698;6.314;2023-12-20T14:32:57;7.10;99.90
57829;DHT22;43657;52.698;6.314;2023-12-20T14:35:23;7.10;99.90
57829;DHT22;43657;52.698;6.314;2023-12-20T14:37:52;7.20;99.90
57829;DHT22;43657;52.698;6.314;2023-12-20T14:40:19;7.10;99.90
57829;DHT22;43657;52.698;6.314;2023-12-20T14:42:45;7.20;99.90
57829;DHT22;43657;52.698;6.314;2023-12-20T14:45:11;7.20;99.90
57829;DHT22;43657;52.698;6.314;2023-12-20T14:47:39;7.20;99.90
57829;DHT22;43657;52.698;6.314;2023-12-20T14:50:06;7.20;99.90
57829;DHT22;43657;52.698;6.314;2023-12-20T14:52:37;7.10;99.90
57829;DHT22;43657;52.698;6.314;2023-12-20T14:55:11;7.10;99.90
57829;DHT22;43657;52.698;6.314;2023-12-20T14:57:37;7.20;99.90
57829;DHT22;43657;52.698;6.314;2023-12-20T15:00:05;7.10;99.90
57829;DHT22;43657;52.698;6.314;2023-12-20T15:02:31;7.10;99.90
57829;DHT22;43657;52.698;6.314;2023-12-20T15:04:57;7.20;99.90
57829;DHT22;43657;52.698;6.314;2023-12-20T15:07:22;7.10;99.90
57829;DHT22;43657;52.698;6.314;2023-12-20T15:09:48;7.20;99.90
57829;DHT22;43657;52.698;6.314;2023-12-20T15:12:14;7.10;99.90
57829;DHT22;43657;52.698;6.314;2023-12-20T15:14:40;7.10;99.90
57829;DHT22;43657;52.698;6.314;2023-12-20T15:17:08;7.10;99.90
57829;DHT22;43657;52.698;6.314;2023-12-20T15:19:34;7.20;99.90
57829;DHT22;43657;52.698;6.314;2023-12-20T15:22:00;7.10;99.90
57829;DHT22;43657;52.698;6.314;2023-12-20T15:24:25;7.10;99.90
57829;DHT22;43657;52.698;6.314;2023-12-20T15:27:04;7.10;99.90
57829;DHT22;43657;52.698;6.314;2023-12-20T15:29:29;7.10;99.90
57829;DHT22;43657;52.698;6.314;2023-12-20T15:31:56;7.10;99.90
57829;DHT22;43657;52.698;6.314;2023-12-20T15:34:22;7.10;99.90
57829;DHT22;43657;52.698;6.314;2023-12-20T15:36:47;7.10;99.90
57829;DHT22;43657;52.698;6.314;2023-12-20T15:39:13;7.10;99.90
57829;DHT22;43657;52.698;6.314;2023-12-20T15:41:46;7.10;99.90
57829;DHT22;43657;52.698;6.314;2023-12-20T15:44:12;7.10;99.90
57829;DHT22;43657;52.698;6.314;2023-12-20T15:46:41;7.10;99.90
57829;DHT22;43657;52.698;6.314;2023-12-20T15:49:09;7.10;99.90
57829;DHT22;43657;52.698;6.314;2023-12-20T15:51:37;7.10;99.90
57829;DHT22;43657;52.698;6.314;2023-12-20T15:54:02;7.10;99.90
57829;DHT22;43657;52.698;6.314;2023-12-20T15:56:33;7.10;99.90
57829;DHT22;43657;52.698;6.314;2023-12-20T15:58:59;7.10;99.90
57829;DHT22;43657;52.698;6.314;2023-12-20T16:01:29;7.10;99.90
57829;DHT22;43657;52.698;6.314;2023-12-20T16:04:03;7.10;99.90
57829;DHT22;43657;52.698;6.314;2023-12-20T16:06:31;7.10;99.90